sensor_id;sensor_type;location;lat;lon;timestamp;P1;durP1;ratioP1;P2;durP2;ratioP2
13263;SDS011;6700;51.988;7.646;2022-08-02T00:01:39;7.17;;;3.80;;
13263;SDS011;6700;51.988;7.646;2022-08-02T00:04:06;5.33;;;3.30;;
13263;SDS011;6700;51.988;7.646;2022-08-02T00:06:35;9.87;;;3.93;;
13263;SDS011;6700;51.988;7.646;2022-08-02T00:09:04;6.17;;;4.20;;
13263;SDS011;6700;51.988;7.646;2022-08-02T00:11:32;9.90;;;3.97;;
13263;SDS011;6700;51.988;7.646;2022-08-02T00:14:00;5.57;;;4.00;;
13263;SDS011;6700;51.988;7.646;2022-08-02T00:16:27;10.63;;;3.97;;
13263;SDS011;6700;51.988;7.646;2022-08-02T00:19:03;4.60;;;3.73;;
13263;SDS011;6700;51.988;7.646;2022-08-02T00:21:32;7.80;;;4.20;;
13263;SDS011;6700;51.988;7.646;2022-08-02T00:23:59;11.57;;;3.90;;
13263;SDS011;6700;51.988;7.646;2022-08-02T00:26:46;5.27;;;3.33;;
13263;SDS011;6700;51.988;7.646;2022-08-02T00:29:14;5.83;;;3.60;;
13263;SDS011;6700;51.988;7.646;2022-08-02T00:31:41;7.30;;;3.00;;
13263;SDS011;6700;51.988;7.646;2022-08-02T00:34:08;4.37;;;2.90;;
13263;SDS011;6700;51.988;7.646;2022-08-02T00:36:56;5.60;;;3.33;;
13263;SDS011;6700;51.988;7.646;2022-08-02T00:39:23;9.87;;;3.20;;
13263;SDS011;6700;51.988;7.646;2022-08-02T00:42:01;5.17;;;3.43;;
13263;SDS011;6700;51.988;7.646;2022-08-02T00:44:28;5.17;;;3.07;;
13263;SDS011;6700;51.988;7.646;2022-08-02T00:46:55;6.30;;;3.60;;
13263;SDS011;6700;51.988;7.646;2022-08-02T00:49:22;5.37;;;3.30;;
13263;SDS011;6700;51.988;7.646;2022-08-02T00:51:50;6.73;;;3.37;;
13263;SDS011;6700;51.988;7.646;2022-08-02T00:54:18;9.57;;;3.43;;
13263;SDS011;6700;51.988;7.646;2022-08-02T00:56:45;8.53;;;3.83;;
13263;SDS011;6700;51.988;7.646;2022-08-02T00:59:16;8.07;;;3.57;;
13263;SDS011;6700;51.988;7.646;2022-08-02T01:01:45;10.33;;;4.07;;
13263;SDS011;6700;51.988;7.646;2022-08-02T01:04:23;9.90;;;4.43;;
13263;SDS011;6700;51.988;7.646;2022-08-02T01:06:56;4.83;;;3.37;;
13263;SDS011;6700;51.988;7.646;2022-08-02T01:09:23;4.57;;;3.80;;
13263;SDS011;6700;51.988;7.646;2022-08-02T01:11:52;7.43;;;3.80;;
13263;SDS011;6700;51.988;7.646;2022-08-02T01:14:19;6.53;;;3.63;;
13263;SDS011;6700;51.988;7.646;2022-08-02T01:16:57;5.43;;;3.17;;
13263;SDS011;6700;51.988;7.646;2022-08-02T01:24:51;6.73;;;3.50;;
13263;SDS011;6700;51.988;7.646;2022-08-02T01:30:08;8.30;;;3.23;;
13263;SDS011;6700;51.988;7.646;2022-08-02T01:32:41;4.43;;;3.70;;
13263;SDS011;6700;51.988;7.646;2022-08-02T01:35:10;9.03;;;4.73;;
13263;SDS011;6700;51.988;7.646;2022-08-02T01:37:42;7.70;;;3.87;;
13263;SDS011;6700;51.988;7.646;2022-08-02T01:40:21;7.13;;;3.57;;
13263;SDS011;6700;51.988;7.646;2022-08-02T01:42:52;9.10;;;3.20;;
13263;SDS011;6700;51.988;7.646;2022-08-02T01:45:20;4.20;;;3.67;;
13263;SDS011;6700;51.988;7.646;2022-08-02T01:47:48;5.80;;;3.90;;
13263;SDS011;6700;51.988;7.646;2022-08-02T01:50:16;5.53;;;3.70;;
13263;SDS011;6700;51.988;7.646;2022-08-02T01:52:46;7.73;;;4.30;;
13263;SDS011;6700;51.988;7.646;2022-08-02T01:55:23;5.57;;;3.60;;
13263;SDS011;6700;51.988;7.646;2022-08-02T01:58:11;4.67;;;3.97;;
13263;SDS011;6700;51.988;7.646;2022-08-02T02:00:41;7.63;;;3.63;;
13263;SDS011;6700;51.988;7.646;2022-08-02T02:03:09;6.90;;;3.70;;
13263;SDS011;6700;51.988;7.646;2022-08-02T02:05:41;4.60;;;3.90;;
13263;SDS011;6700;51.988;7.646;2022-08-02T02:08:09;8.30;;;3.57;;
13263;SDS011;6700;51.988;7.646;2022-08-02T02:10:38;5.80;;;3.80;;
13263;SDS011;6700;51.988;7.646;2022-08-02T02:18:24;5.13;;;4.27;;
13263;SDS011;6700;51.988;7.646;2022-08-02T02:20:53;7.60;;;3.87;;
13263;SDS011;6700;51.988;7.646;2022-08-02T02:23:21;7.47;;;4.20;;
13263;SDS011;6700;51.988;7.646;2022-08-02T02:25:55;8.33;;;4.27;;
13263;SDS011;6700;51.988;7.646;2022-08-02T02:28:24;7.80;;;4.13;;
13263;SDS011;6700;51.988;7.646;2022-08-02T02:31:00;6.20;;;4.10;;
13263;SDS011;6700;51.988;7.646;2022-08-02T02:33:29;5.33;;;3.47;;
13263;SDS011;6700;51.988;7.646;2022-08-02T02:35:56;8.47;;;4.27;;
13263;SDS011;6700;51.988;7.646;2022-08-02T02:38:27;7.63;;;4.20;;
13263;SDS011;6700;51.988;7.646;2022-08-02T02:40:55;7.30;;;3.97;;
13263;SDS011;6700;51.988;7.646;2022-08-02T02:43:25;10.13;;;4.43;;
13263;SDS011;6700;51.988;7.646;2022-08-02T02:45:54;7.57;;;4.23;;
13263;SDS011;6700;51.988;7.646;2022-08-02T02:48:23;11.23;;;5.07;;
13263;SDS011;6700;51.988;7.646;2022-08-02T02:50:52;6.97;;;4.37;;
13263;SDS011;6700;51.988;7.646;2022-08-02T02:53:20;7.77;;;4.80;;
13263;SDS011;6700;51.988;7.646;2022-08-02T02:55:48;6.87;;;4.57;;
13263;SDS011;6700;51.988;7.646;2022-08-02T02:58:27;7.13;;;4.27;;
13263;SDS011;6700;51.988;7.646;2022-08-02T03:00:55;7.83;;;4.63;;
13263;SDS011;6700;51.988;7.646;2022-08-02T03:03:42;6.90;;;4.03;;
13263;SDS011;6700;51.988;7.646;2022-08-02T03:06:10;4.40;;;4.00;;
13263;SDS011;6700;51.988;7.646;2022-08-02T03:08:41;10.23;;;5.53;;
13263;SDS011;6700;51.988;7.646;2022-08-02T03:11:09;7.47;;;4.87;;
13263;SDS011;6700;51.988;7.646;2022-08-02T03:13:37;6.57;;;4.20;;
13263;SDS011;6700;51.988;7.646;2022-08-02T03:16:06;4.93;;;4.43;;
13263;SDS011;6700;51.988;7.646;2022-08-02T03:18:34;11.97;;;4.67;;
13263;SDS011;6700;51.988;7.646;2022-08-02T03:21:03;8.10;;;5.70;;
13263;SDS011;6700;51.988;7.646;2022-08-02T03:23:31;6.83;;;5.47;;
13263;SDS011;6700;51.988;7.646;2022-08-02T03:25:59;6.57;;;4.90;;
13263;SDS011;6700;51.988;7.646;2022-08-02T03:28:27;7.93;;;5.23;;
13263;SDS011;6700;51.988;7.646;2022-08-02T03:30:59;8.77;;;4.73;;
13263;SDS011;6700;51.988;7.646;2022-08-02T03:33:27;9.63;;;5.77;;
13263;SDS011;6700;51.988;7.646;2022-08-02T03:35:55;6.10;;;5.17;;
13263;SDS011;6700;51.988;7.646;2022-08-02T03:38:23;11.30;;;5.37;;
13263;SDS011;6700;51.988;7.646;2022-08-02T03:40:54;6.83;;;4.90;;
13263;SDS011;6700;51.988;7.646;2022-08-02T03:43:22;7.37;;;5.13;;
13263;SDS011;6700;51.988;7.646;2022-08-02T03:45:54;6.67;;;4.60;;
13263;SDS011;6700;51.988;7.646;2022-08-02T03:48:21;6.23;;;4.67;;
13263;SDS011;6700;51.988;7.646;2022-08-02T03:50:59;8.03;;;4.70;;
13263;SDS011;6700;51.988;7.646;2022-08-02T03:53:28;6.50;;;4.63;;
13263;SDS011;6700;51.988;7.646;2022-08-02T03:55:57;9.57;;;5.00;;
13263;SDS011;6700;51.988;7.646;2022-08-02T03:58:25;5.10;;;4.60;;
13263;SDS011;6700;51.988;7.646;2022-08-02T04:00:53;7.10;;;5.13;;
13263;SDS011;6700;51.988;7.646;2022-08-02T04:03:21;9.20;;;4.80;;
13263;SDS011;6700;51.988;7.646;2022-08-02T04:05:49;10.80;;;5.10;;
13263;SDS011;6700;51.988;7.646;2022-08-02T04:08:29;5.87;;;4.40;;
13263;SDS011;6700;51.988;7.646;2022-08-02T04:11:03;8.40;;;5.70;;
13263;SDS011;6700;51.988;7.646;2022-08-02T04:13:51;6.57;;;5.17;;
13263;SDS011;6700;51.988;7.646;2022-08-02T04:16:30;8.13;;;5.00;;
13263;SDS011;6700;51.988;7.646;2022-08-02T04:19:04;8.43;;;4.87;;
13263;SDS011;6700;51.988;7.646;2022-08-02T04:21:32;7.00;;;4.90;;
13263;SDS011;6700;51.988;7.646;2022-08-02T04:24:19;7.47;;;5.43;;
13263;SDS011;6700;51.988;7.646;2022-08-02T04:26:53;4.40;;;3.80;;
13263;SDS011;6700;51.988;7.646;2022-08-02T04:29:29;4.40;;;4.00;;
13263;SDS011;6700;51.988;7.646;2022-08-02T04:31:57;6.27;;;4.20;;
13263;SDS011;6700;51.988;7.646;2022-08-02T04:34:27;8.07;;;4.73;;
13263;SDS011;6700;51.988;7.646;2022-08-02T04:36:57;6.67;;;4.40;;
13263;SDS011;6700;51.988;7.646;2022-08-02T04:39:25;7.00;;;4.07;;
13263;SDS011;6700;51.988;7.646;2022-08-02T04:41:52;4.40;;;4.00;;
13263;SDS011;6700;51.988;7.646;2022-08-02T04:44:23;5.33;;;4.83;;
13263;SDS011;6700;51.988;7.646;2022-08-02T04:46:51;5.20;;;4.20;;
13263;SDS011;6700;51.988;7.646;2022-08-02T04:49:21;5.13;;;4.03;;
13263;SDS011;6700;51.988;7.646;2022-08-02T04:51:50;6.93;;;4.30;;
13263;SDS011;6700;51.988;7.646;2022-08-02T04:54:17;4.50;;;4.10;;
13263;SDS011;6700;51.988;7.646;2022-08-02T04:56:44;5.60;;;4.90;;
13263;SDS011;6700;51.988;7.646;2022-08-02T04:59:12;5.80;;;4.60;;
13263;SDS011;6700;51.988;7.646;2022-08-02T05:01:39;16.60;;;5.13;;
13263;SDS011;6700;51.988;7.646;2022-08-02T05:04:07;10.27;;;5.30;;
13263;SDS011;6700;51.988;7.646;2022-08-02T05:06:35;8.73;;;5.33;;
13263;SDS011;6700;51.988;7.646;2022-08-02T05:09:02;6.63;;;5.40;;
13263;SDS011;6700;51.988;7.646;2022-08-02T05:11:31;5.73;;;5.13;;
13263;SDS011;6700;51.988;7.646;2022-08-02T05:14:01;7.57;;;5.37;;
13263;SDS011;6700;51.988;7.646;2022-08-02T05:16:29;6.93;;;5.20;;
13263;SDS011;6700;51.988;7.646;2022-08-02T05:19:00;9.13;;;5.50;;
13263;SDS011;6700;51.988;7.646;2022-08-02T05:21:31;10.73;;;5.83;;
13263;SDS011;6700;51.988;7.646;2022-08-02T05:23:58;6.57;;;5.73;;
13263;SDS011;6700;51.988;7.646;2022-08-02T05:26:25;7.97;;;6.70;;
13263;SDS011;6700;51.988;7.646;2022-08-02T05:28:53;9.10;;;7.27;;
13263;SDS011;6700;51.988;7.646;2022-08-02T05:31:22;14.60;;;7.50;;
13263;SDS011;6700;51.988;7.646;2022-08-02T05:33:49;11.93;;;7.60;;
13263;SDS011;6700;51.988;7.646;2022-08-02T05:36:16;10.63;;;7.47;;
13263;SDS011;6700;51.988;7.646;2022-08-02T05:38:46;9.00;;;7.47;;
13263;SDS011;6700;51.988;7.646;2022-08-02T05:41:42;12.23;;;8.27;;
13263;SDS011;6700;51.988;7.646;2022-08-02T05:44:10;7.93;;;7.23;;
13263;SDS011;6700;51.988;7.646;2022-08-02T05:46:37;9.93;;;7.63;;
13263;SDS011;6700;51.988;7.646;2022-08-02T05:49:06;9.33;;;7.70;;
13263;SDS011;6700;51.988;7.646;2022-08-02T05:51:38;9.77;;;8.77;;
13263;SDS011;6700;51.988;7.646;2022-08-02T05:57:19;8.97;;;7.97;;
13263;SDS011;6700;51.988;7.646;2022-08-02T06:00:01;11.80;;;8.53;;
13263;SDS011;6700;51.988;7.646;2022-08-02T06:05:07;12.97;;;9.27;;
13263;SDS011;6700;51.988;7.646;2022-08-02T06:07:36;10.20;;;8.73;;
13263;SDS011;6700;51.988;7.646;2022-08-02T06:10:07;10.70;;;9.10;;
13263;SDS011;6700;51.988;7.646;2022-08-02T06:12:39;11.60;;;9.23;;
13263;SDS011;6700;51.988;7.646;2022-08-02T06:15:07;13.77;;;9.17;;
13263;SDS011;6700;51.988;7.646;2022-08-02T06:17:39;13.17;;;10.03;;
13263;SDS011;6700;51.988;7.646;2022-08-02T06:20:11;13.27;;;10.77;;
13263;SDS011;6700;51.988;7.646;2022-08-02T06:22:40;13.33;;;10.17;;
13263;SDS011;6700;51.988;7.646;2022-08-02T06:25:14;14.07;;;10.43;;
13263;SDS011;6700;51.988;7.646;2022-08-02T06:28:03;11.80;;;10.17;;
13263;SDS011;6700;51.988;7.646;2022-08-02T06:30:36;11.70;;;8.33;;
13263;SDS011;6700;51.988;7.646;2022-08-02T06:33:05;14.33;;;9.30;;
13263;SDS011;6700;51.988;7.646;2022-08-02T06:35:33;11.33;;;10.30;;
13263;SDS011;6700;51.988;7.646;2022-08-02T06:38:02;11.53;;;9.67;;
13263;SDS011;6700;51.988;7.646;2022-08-02T06:45:30;14.87;;;8.97;;
13263;SDS011;6700;51.988;7.646;2022-08-02T06:48:00;9.43;;;8.13;;
13263;SDS011;6700;51.988;7.646;2022-08-02T06:50:30;11.53;;;9.20;;
13263;SDS011;6700;51.988;7.646;2022-08-02T06:52:57;19.67;;;11.10;;
13263;SDS011;6700;51.988;7.646;2022-08-02T06:55:26;15.10;;;9.80;;
13263;SDS011;6700;51.988;7.646;2022-08-02T06:57:54;11.27;;;9.93;;
13263;SDS011;6700;51.988;7.646;2022-08-02T07:00:22;15.00;;;11.10;;
13263;SDS011;6700;51.988;7.646;2022-08-02T07:02:49;16.47;;;9.87;;
13263;SDS011;6700;51.988;7.646;2022-08-02T07:05:18;16.50;;;9.90;;
13263;SDS011;6700;51.988;7.646;2022-08-02T07:07:45;12.97;;;9.10;;
13263;SDS011;6700;51.988;7.646;2022-08-02T07:10:13;12.00;;;9.93;;
13263;SDS011;6700;51.988;7.646;2022-08-02T07:12:40;10.90;;;9.23;;
13263;SDS011;6700;51.988;7.646;2022-08-02T07:15:08;10.30;;;9.23;;
13263;SDS011;6700;51.988;7.646;2022-08-02T07:17:37;14.73;;;10.90;;
13263;SDS011;6700;51.988;7.646;2022-08-02T07:20:04;12.70;;;8.47;;
13263;SDS011;6700;51.988;7.646;2022-08-02T07:22:32;14.43;;;7.90;;
13263;SDS011;6700;51.988;7.646;2022-08-02T07:25:00;11.87;;;8.10;;
13263;SDS011;6700;51.988;7.646;2022-08-02T07:27:29;18.83;;;8.37;;
13263;SDS011;6700;51.988;7.646;2022-08-02T07:29:57;10.23;;;9.23;;
13263;SDS011;6700;51.988;7.646;2022-08-02T07:32:27;15.83;;;7.97;;
13263;SDS011;6700;51.988;7.646;2022-08-02T07:34:55;13.68;;;9.02;;
13263;SDS011;6700;51.988;7.646;2022-08-02T07:37:23;11.00;;;8.18;;
13263;SDS011;6700;51.988;7.646;2022-08-02T07:40:12;9.02;;;7.65;;
13263;SDS011;6700;51.988;7.646;2022-08-02T07:42:46;10.57;;;8.48;;
13263;SDS011;6700;51.988;7.646;2022-08-02T07:45:14;9.98;;;7.70;;
13263;SDS011;6700;51.988;7.646;2022-08-02T07:47:43;8.82;;;7.93;;
13263;SDS011;6700;51.988;7.646;2022-08-02T07:50:10;10.68;;;8.60;;
13263;SDS011;6700;51.988;7.646;2022-08-02T07:52:42;11.63;;;8.50;;
13263;SDS011;6700;51.988;7.646;2022-08-02T07:55:10;13.02;;;7.35;;
13263;SDS011;6700;51.988;7.646;2022-08-02T07:57:38;10.77;;;6.50;;
13263;SDS011;6700;51.988;7.646;2022-08-02T08:00:11;13.75;;;7.30;;
13263;SDS011;6700;51.988;7.646;2022-08-02T08:02:39;11.98;;;5.35;;
13263;SDS011;6700;51.988;7.646;2022-08-02T08:05:07;6.50;;;4.93;;
13263;SDS011;6700;51.988;7.646;2022-08-02T08:07:34;6.03;;;4.38;;
13263;SDS011;6700;51.988;7.646;2022-08-02T08:10:03;6.03;;;4.30;;
13263;SDS011;6700;51.988;7.646;2022-08-02T08:12:30;9.15;;;4.25;;
13263;SDS011;6700;51.988;7.646;2022-08-02T08:14:58;5.47;;;3.80;;
13263;SDS011;6700;51.988;7.646;2022-08-02T08:17:25;5.78;;;3.95;;
13263;SDS011;6700;51.988;7.646;2022-08-02T08:19:53;8.10;;;3.35;;
13263;SDS011;6700;51.988;7.646;2022-08-02T08:22:20;7.38;;;3.28;;
13263;SDS011;6700;51.988;7.646;2022-08-02T08:24:48;9.80;;;3.63;;
13263;SDS011;6700;51.988;7.646;2022-08-02T08:27:16;5.22;;;3.05;;
13263;SDS011;6700;51.988;7.646;2022-08-02T08:29:43;10.27;;;3.00;;
13263;SDS011;6700;51.988;7.646;2022-08-02T08:32:13;4.63;;;2.97;;
13263;SDS011;6700;51.988;7.646;2022-08-02T08:34:47;5.43;;;3.20;;
13263;SDS011;6700;51.988;7.646;2022-08-02T08:37:16;5.05;;;2.60;;
13263;SDS011;6700;51.988;7.646;2022-08-02T08:39:44;4.63;;;2.80;;
13263;SDS011;6700;51.988;7.646;2022-08-02T08:42:24;4.07;;;2.50;;
13263;SDS011;6700;51.988;7.646;2022-08-02T08:44:55;4.85;;;2.78;;
13263;SDS011;6700;51.988;7.646;2022-08-02T08:47:33;7.22;;;2.97;;
13263;SDS011;6700;51.988;7.646;2022-08-02T08:50:02;5.38;;;3.05;;
13263;SDS011;6700;51.988;7.646;2022-08-02T08:52:30;5.10;;;3.20;;
13263;SDS011;6700;51.988;7.646;2022-08-02T08:55:04;6.60;;;3.20;;
13263;SDS011;6700;51.988;7.646;2022-08-02T08:57:34;17.17;;;3.88;;
13263;SDS011;6700;51.988;7.646;2022-08-02T09:00:05;18.40;;;3.35;;
13263;SDS011;6700;51.988;7.646;2022-08-02T09:02:35;13.43;;;5.35;;
13263;SDS011;6700;51.988;7.646;2022-08-02T09:05:03;17.30;;;5.45;;
13263;SDS011;6700;51.988;7.646;2022-08-02T09:07:30;10.88;;;3.92;;
13263;SDS011;6700;51.988;7.646;2022-08-02T09:09:58;9.00;;;3.92;;
13263;SDS011;6700;51.988;7.646;2022-08-02T09:12:25;8.13;;;3.40;;
13263;SDS011;6700;51.988;7.646;2022-08-02T09:14:52;8.43;;;3.65;;
13263;SDS011;6700;51.988;7.646;2022-08-02T09:17:21;22.15;;;4.30;;
13263;SDS011;6700;51.988;7.646;2022-08-02T09:20:22;7.97;;;3.78;;
13263;SDS011;6700;51.988;7.646;2022-08-02T09:22:42;18.55;;;3.53;;
13263;SDS011;6700;51.988;7.646;2022-08-02T09:25:14;5.15;;;2.75;;
13263;SDS011;6700;51.988;7.646;2022-08-02T09:27:41;9.35;;;3.00;;
13263;SDS011;6700;51.988;7.646;2022-08-02T09:30:12;7.78;;;2.90;;
13263;SDS011;6700;51.988;7.646;2022-08-02T09:32:43;10.90;;;3.30;;
13263;SDS011;6700;51.988;7.646;2022-08-02T09:35:34;9.55;;;3.40;;
13263;SDS011;6700;51.988;7.646;2022-08-02T09:38:22;8.52;;;2.40;;
13263;SDS011;6700;51.988;7.646;2022-08-02T09:40:51;3.22;;;2.13;;
13263;SDS011;6700;51.988;7.646;2022-08-02T09:43:41;7.63;;;2.80;;
13263;SDS011;6700;51.988;7.646;2022-08-02T09:46:29;7.82;;;3.30;;
13263;SDS011;6700;51.988;7.646;2022-08-02T09:49:00;5.05;;;2.92;;
13263;SDS011;6700;51.988;7.646;2022-08-02T09:51:35;5.68;;;3.40;;
13263;SDS011;6700;51.988;7.646;2022-08-02T09:54:09;4.53;;;2.90;;
13263;SDS011;6700;51.988;7.646;2022-08-02T09:56:44;4.45;;;3.13;;
13263;SDS011;6700;51.988;7.646;2022-08-02T10:03:08;6.30;;;3.15;;
13263;SDS011;6700;51.988;7.646;2022-08-02T10:06:41;6.28;;;2.70;;
13263;SDS011;6700;51.988;7.646;2022-08-02T10:09:13;3.13;;;2.50;;
13263;SDS011;6700;51.988;7.646;2022-08-02T10:11:40;3.28;;;2.72;;
13263;SDS011;6700;51.988;7.646;2022-08-02T10:14:08;5.18;;;2.70;;
13263;SDS011;6700;51.988;7.646;2022-08-02T10:16:37;5.90;;;2.80;;
13263;SDS011;6700;51.988;7.646;2022-08-02T10:19:06;5.65;;;2.53;;
13263;SDS011;6700;51.988;7.646;2022-08-02T10:21:48;5.38;;;2.78;;
13263;SDS011;6700;51.988;7.646;2022-08-02T10:24:17;3.47;;;2.40;;
13263;SDS011;6700;51.988;7.646;2022-08-02T10:26:45;6.22;;;3.03;;
13263;SDS011;6700;51.988;7.646;2022-08-02T10:29:16;11.05;;;2.83;;
13263;SDS011;6700;51.988;7.646;2022-08-02T10:31:54;3.78;;;3.25;;
13263;SDS011;6700;51.988;7.646;2022-08-02T10:34:23;5.15;;;2.92;;
13263;SDS011;6700;51.988;7.646;2022-08-02T10:36:57;3.92;;;2.83;;
13263;SDS011;6700;51.988;7.646;2022-08-02T10:39:27;4.43;;;3.42;;
13263;SDS011;6700;51.988;7.646;2022-08-02T10:41:56;7.28;;;3.08;;
13263;SDS011;6700;51.988;7.646;2022-08-02T10:44:25;5.55;;;3.13;;
13263;SDS011;6700;51.988;7.646;2022-08-02T10:49:47;5.30;;;3.10;;
13263;SDS011;6700;51.988;7.646;2022-08-02T10:52:15;4.43;;;2.80;;
13263;SDS011;6700;51.988;7.646;2022-08-02T10:54:47;4.75;;;2.70;;
13263;SDS011;6700;51.988;7.646;2022-08-02T10:57:19;8.70;;;2.90;;
13263;SDS011;6700;51.988;7.646;2022-08-02T10:59:54;3.85;;;2.90;;
13263;SDS011;6700;51.988;7.646;2022-08-02T11:02:41;3.88;;;2.75;;
13263;SDS011;6700;51.988;7.646;2022-08-02T11:05:14;5.35;;;3.25;;
13263;SDS011;6700;51.988;7.646;2022-08-02T11:08:16;4.05;;;2.65;;
13263;SDS011;6700;51.988;7.646;2022-08-02T11:10:44;3.08;;;2.67;;
13263;SDS011;6700;51.988;7.646;2022-08-02T11:13:17;3.35;;;2.72;;
13263;SDS011;6700;51.988;7.646;2022-08-02T11:16:05;3.60;;;3.25;;
13263;SDS011;6700;51.988;7.646;2022-08-02T11:24:46;4.05;;;2.58;;
13263;SDS011;6700;51.988;7.646;2022-08-02T11:31:08;3.47;;;2.55;;
13263;SDS011;6700;51.988;7.646;2022-08-02T11:37:43;5.78;;;2.50;;
13263;SDS011;6700;51.988;7.646;2022-08-02T11:40:12;3.28;;;2.35;;
13263;SDS011;6700;51.988;7.646;2022-08-02T11:42:45;3.13;;;2.20;;
13263;SDS011;6700;51.988;7.646;2022-08-02T11:45:16;3.53;;;2.67;;
13263;SDS011;6700;51.988;7.646;2022-08-02T11:47:47;3.38;;;3.08;;
13263;SDS011;6700;51.988;7.646;2022-08-02T11:50:24;4.55;;;2.70;;
13263;SDS011;6700;51.988;7.646;2022-08-02T11:53:52;3.08;;;2.40;;
13263;SDS011;6700;51.988;7.646;2022-08-02T11:56:34;2.60;;;2.40;;
13263;SDS011;6700;51.988;7.646;2022-08-02T12:00:20;3.53;;;3.17;;
13263;SDS011;6700;51.988;7.646;2022-08-02T12:06:52;2.90;;;2.70;;
13263;SDS011;6700;51.988;7.646;2022-08-02T12:10:08;2.80;;;2.60;;
13263;SDS011;6700;51.988;7.646;2022-08-02T12:17:24;10.15;;;3.88;;
13263;SDS011;6700;51.988;7.646;2022-08-02T12:24:09;3.83;;;3.25;;
13263;SDS011;6700;51.988;7.646;2022-08-02T12:26:43;4.57;;;3.90;;
13263;SDS011;6700;51.988;7.646;2022-08-02T12:32:36;4.43;;;3.40;;
13263;SDS011;6700;51.988;7.646;2022-08-02T12:48:25;4.68;;;3.20;;
13263;SDS011;6700;51.988;7.646;2022-08-02T12:53:48;4.43;;;3.17;;
13263;SDS011;6700;51.988;7.646;2022-08-02T12:56:31;3.53;;;3.17;;
13263;SDS011;6700;51.988;7.646;2022-08-02T12:58:59;3.58;;;3.33;;
13263;SDS011;6700;51.988;7.646;2022-08-02T13:01:27;3.28;;;3.08;;
13263;SDS011;6700;51.988;7.646;2022-08-02T13:03:55;3.25;;;3.00;;
13263;SDS011;6700;51.988;7.646;2022-08-02T13:06:38;4.47;;;3.00;;
13263;SDS011;6700;51.988;7.646;2022-08-02T13:09:10;3.38;;;3.08;;
13263;SDS011;6700;51.988;7.646;2022-08-02T13:11:38;3.47;;;3.13;;
13263;SDS011;6700;51.988;7.646;2022-08-02T13:14:08;3.47;;;2.95;;
13263;SDS011;6700;51.988;7.646;2022-08-02T13:16:39;3.10;;;2.90;;
13263;SDS011;6700;51.988;7.646;2022-08-02T13:20:16;3.25;;;3.05;;
13263;SDS011;6700;51.988;7.646;2022-08-02T13:37:10;3.10;;;2.75;;
13263;SDS011;6700;51.988;7.646;2022-08-02T15:50:04;2.40;;;2.20;;
13263;SDS011;6700;51.988;7.646;2022-08-02T16:00:46;2.50;;;2.30;;
13263;SDS011;6700;51.988;7.646;2022-08-02T16:06:28;2.28;;;2.10;;
13263;SDS011;6700;51.988;7.646;2022-08-02T16:13:36;2.50;;;2.28;;
13263;SDS011;6700;51.988;7.646;2022-08-02T16:16:26;2.47;;;2.28;;
13263;SDS011;6700;51.988;7.646;2022-08-02T16:19:57;3.30;;;2.58;;
13263;SDS011;6700;51.988;7.646;2022-08-02T16:23:09;2.72;;;2.50;;
13263;SDS011;6700;51.988;7.646;2022-08-02T16:29:49;3.90;;;2.42;;
13263;SDS011;6700;51.988;7.646;2022-08-02T16:39:22;2.35;;;2.17;;
13263;SDS011;6700;51.988;7.646;2022-08-02T16:43:18;2.42;;;2.00;;
13263;SDS011;6700;51.988;7.646;2022-08-02T16:45:52;2.33;;;2.17;;
13263;SDS011;6700;51.988;7.646;2022-08-02T16:48:21;2.40;;;2.17;;
13263;SDS011;6700;51.988;7.646;2022-08-02T16:51:14;2.97;;;2.20;;
13263;SDS011;6700;51.988;7.646;2022-08-02T16:57:38;3.08;;;1.90;;
13263;SDS011;6700;51.988;7.646;2022-08-02T17:00:12;2.40;;;2.20;;
13263;SDS011;6700;51.988;7.646;2022-08-02T17:02:41;2.40;;;2.20;;
13263;SDS011;6700;51.988;7.646;2022-08-02T17:07:58;2.42;;;2.22;;
13263;SDS011;6700;51.988;7.646;2022-08-02T17:11:44;4.60;;;2.22;;
13263;SDS011;6700;51.988;7.646;2022-08-02T17:14:53;2.70;;;2.35;;
13263;SDS011;6700;51.988;7.646;2022-08-02T17:17:40;2.60;;;2.40;;
13263;SDS011;6700;51.988;7.646;2022-08-02T17:24:10;4.80;;;2.08;;
13263;SDS011;6700;51.988;7.646;2022-08-02T17:26:38;2.72;;;2.53;;
13263;SDS011;6700;51.988;7.646;2022-08-02T17:29:07;6.13;;;2.10;;
13263;SDS011;6700;51.988;7.646;2022-08-02T17:31:41;2.47;;;2.28;;
13263;SDS011;6700;51.988;7.646;2022-08-02T17:34:28;4.38;;;2.38;;
13263;SDS011;6700;51.988;7.646;2022-08-02T17:36:56;2.65;;;1.90;;
13263;SDS011;6700;51.988;7.646;2022-08-02T17:39:23;2.17;;;1.98;;
13263;SDS011;6700;51.988;7.646;2022-08-02T17:41:59;1.95;;;1.85;;
13263;SDS011;6700;51.988;7.646;2022-08-02T17:44:27;3.22;;;2.45;;
13263;SDS011;6700;51.988;7.646;2022-08-02T17:47:04;2.40;;;2.20;;
13263;SDS011;6700;51.988;7.646;2022-08-02T17:49:35;2.60;;;2.35;;
13263;SDS011;6700;51.988;7.646;2022-08-02T17:52:17;2.35;;;2.15;;
13263;SDS011;6700;51.988;7.646;2022-08-02T18:02:32;4.60;;;2.28;;
13263;SDS011;6700;51.988;7.646;2022-08-02T18:05:35;2.50;;;2.30;;
13263;SDS011;6700;51.988;7.646;2022-08-02T18:08:06;5.13;;;2.22;;
13263;SDS011;6700;51.988;7.646;2022-08-02T18:10:40;3.13;;;2.80;;
13263;SDS011;6700;51.988;7.646;2022-08-02T18:14:14;2.38;;;1.95;;
13263;SDS011;6700;51.988;7.646;2022-08-02T18:17:47;4.78;;;2.20;;
13263;SDS011;6700;51.988;7.646;2022-08-02T18:24:03;3.20;;;2.28;;
13263;SDS011;6700;51.988;7.646;2022-08-02T18:27:41;2.60;;;2.15;;
13263;SDS011;6700;51.988;7.646;2022-08-02T18:30:08;3.03;;;2.08;;
13263;SDS011;6700;51.988;7.646;2022-08-02T18:32:37;3.03;;;2.22;;
13263;SDS011;6700;51.988;7.646;2022-08-02T18:35:26;3.95;;;2.03;;
13263;SDS011;6700;51.988;7.646;2022-08-02T18:48:15;4.28;;;2.00;;
13263;SDS011;6700;51.988;7.646;2022-08-02T18:59:05;4.18;;;2.17;;
13263;SDS011;6700;51.988;7.646;2022-08-02T19:05:59;3.65;;;2.03;;
13263;SDS011;6700;51.988;7.646;2022-08-02T19:08:46;1.90;;;1.70;;
13263;SDS011;6700;51.988;7.646;2022-08-02T19:23:08;2.63;;;2.13;;
13263;SDS011;6700;51.988;7.646;2022-08-02T19:25:47;3.35;;;2.47;;
13263;SDS011;6700;51.988;7.646;2022-08-02T19:32:18;2.83;;;2.10;;
13263;SDS011;6700;51.988;7.646;2022-08-02T19:39:20;2.92;;;2.10;;
13263;SDS011;6700;51.988;7.646;2022-08-02T19:42:17;2.10;;;1.80;;
13263;SDS011;6700;51.988;7.646;2022-08-02T19:44:57;2.53;;;2.30;;
13263;SDS011;6700;51.988;7.646;2022-08-02T19:47:30;2.15;;;2.03;;
13263;SDS011;6700;51.988;7.646;2022-08-02T19:51:03;2.47;;;2.10;;
13263;SDS011;6700;51.988;7.646;2022-08-02T19:54:34;6.47;;;2.25;;
13263;SDS011;6700;51.988;7.646;2022-08-02T19:57:50;3.42;;;2.40;;
13263;SDS011;6700;51.988;7.646;2022-08-02T20:01:04;2.70;;;1.98;;
13263;SDS011;6700;51.988;7.646;2022-08-02T20:04:03;4.80;;;2.40;;
13263;SDS011;6700;51.988;7.646;2022-08-02T20:06:52;3.05;;;2.83;;
13263;SDS011;6700;51.988;7.646;2022-08-02T20:10:39;3.60;;;2.03;;
13263;SDS011;6700;51.988;7.646;2022-08-02T20:13:30;2.40;;;2.20;;
13263;SDS011;6700;51.988;7.646;2022-08-02T20:16:39;3.47;;;2.70;;
13263;SDS011;6700;51.988;7.646;2022-08-02T20:19:38;2.53;;;2.33;;
13263;SDS011;6700;51.988;7.646;2022-08-02T20:22:33;5.75;;;2.75;;
13263;SDS011;6700;51.988;7.646;2022-08-02T20:25:53;5.40;;;3.42;;
13263;SDS011;6700;51.988;7.646;2022-08-02T20:28:41;4.25;;;3.20;;
13263;SDS011;6700;51.988;7.646;2022-08-02T20:31:42;4.00;;;3.13;;
13263;SDS011;6700;51.988;7.646;2022-08-02T20:34:50;3.38;;;2.95;;
13263;SDS011;6700;51.988;7.646;2022-08-02T21:15:42;4.67;;;3.27;;
13263;SDS011;6700;51.988;7.646;2022-08-02T21:18:26;3.10;;;2.60;;
13263;SDS011;6700;51.988;7.646;2022-08-02T21:21:43;3.57;;;2.60;;
13263;SDS011;6700;51.988;7.646;2022-08-02T21:25:01;3.10;;;2.80;;
13263;SDS011;6700;51.988;7.646;2022-08-02T21:31:25;2.70;;;2.50;;
13263;SDS011;6700;51.988;7.646;2022-08-02T21:59:39;4.10;;;3.03;;
13263;SDS011;6700;51.988;7.646;2022-08-02T22:02:56;3.53;;;3.23;;
13263;SDS011;6700;51.988;7.646;2022-08-02T22:09:26;3.10;;;2.80;;
13263;SDS011;6700;51.988;7.646;2022-08-02T22:12:23;4.73;;;3.23;;
13263;SDS011;6700;51.988;7.646;2022-08-02T22:26:25;3.97;;;3.60;;
13263;SDS011;6700;51.988;7.646;2022-08-02T22:29:19;4.00;;;3.57;;